sensor_id;sensor_type;location;lat;lon;timestamp;pressure;altitude;pressure_sealevel;temperature;humidity
49949;BME280;35840;45.982;8.890;2024-03-17T00:01:37;98860.75;;;11.31;56.01
49949;BME280;35840;45.982;8.890;2024-03-17T00:04:03;98850.03;;;11.39;55.61
49949;BME280;35840;45.982;8.890;2024-03-17T00:06:30;98846.38;;;11.43;56.00
49949;BME280;35840;45.982;8.890;2024-03-17T00:08:56;98857.66;;;11.40;56.03
49949;BME280;35840;45.982;8.890;2024-03-17T00:11:22;98859.47;;;11.38;55.98
49949;BME280;35840;45.982;8.890;2024-03-17T00:13:47;98865.31;;;10.94;57.47
49949;BME280;35840;45.982;8.890;2024-03-17T00:16:13;98866.72;;;11.15;57.66
49949;BME280;35840;45.982;8.890;2024-03-17T00:18:39;98861.34;;;11.04;58.05
49949;BME280;35840;45.982;8.890;2024-03-17T00:21:06;98862.59;;;10.81;57.89
49949;BME280;35840;45.982;8.890;2024-03-17T00:23:32;98870.81;;;10.88;58.35
49949;BME280;35840;45.982;8.890;2024-03-17T00:25:58;98868.47;;;10.83;58.87
49949;BME280;35840;45.982;8.890;2024-03-17T00:28:24;98864.53;;;10.26;60.92
49949;BME280;35840;45.982;8.890;2024-03-17T00:30:50;98865.94;;;10.49;60.42
49949;BME280;35840;45.982;8.890;2024-03-17T00:33:16;98862.16;;;10.73;60.24
49949;BME280;35840;45.982;8.890;2024-03-17T00:35:42;98862.75;;;10.78;60.29
49949;BME280;35840;45.982;8.890;2024-03-17T00:38:08;98856.44;;;10.34;61.62
49949;BME280;35840;45.982;8.890;2024-03-17T00:40:38;98855.69;;;10.32;61.63
49949;BME280;35840;45.982;8.890;2024-03-17T00:43:04;98856.28;;;10.37;61.47
49949;BME280;35840;45.982;8.890;2024-03-17T00:45:30;98850.53;;;10.65;61.11
49949;BME280;35840;45.982;8.890;2024-03-17T00:47:56;98857.00;;;10.73;60.98
49949;BME280;35840;45.982;8.890;2024-03-17T00:50:22;98845.13;;;10.70;60.32
49949;BME280;35840;45.982;8.890;2024-03-17T00:52:47;98857.28;;;10.84;60.29
49949;BME280;35840;45.982;8.890;2024-03-17T00:55:13;98860.53;;;10.88;59.99
49949;BME280;35840;45.982;8.890;2024-03-17T00:57:41;98870.13;;;10.84;59.65
49949;BME280;35840;45.982;8.890;2024-03-17T01:00:07;98860.09;;;10.79;59.82
49949;BME280;35840;45.982;8.890;2024-03-17T01:02:37;98864.91;;;10.70;59.74
49949;BME280;35840;45.982;8.890;2024-03-17T01:05:03;98865.88;;;10.67;59.79
49949;BME280;35840;45.982;8.890;2024-03-17T01:07:33;98859.66;;;10.71;60.13
49949;BME280;35840;45.982;8.890;2024-03-17T01:09:59;98876.25;;;10.81;59.85
49949;BME280;35840;45.982;8.890;2024-03-17T01:12:26;98877.19;;;10.80;60.31
49949;BME280;35840;45.982;8.890;2024-03-17T01:14:52;98873.69;;;10.81;59.84
49949;BME280;35840;45.982;8.890;2024-03-17T01:17:17;98867.72;;;10.81;59.51
49949;BME280;35840;45.982;8.890;2024-03-17T01:19:45;98864.00;;;10.71;60.24
49949;BME280;35840;45.982;8.890;2024-03-17T01:22:11;98861.16;;;10.75;60.44
49949;BME280;35840;45.982;8.890;2024-03-17T01:24:37;98868.16;;;10.73;60.59
49949;BME280;35840;45.982;8.890;2024-03-17T01:27:05;98867.56;;;10.68;60.50
49949;BME280;35840;45.982;8.890;2024-03-17T01:29:32;98875.25;;;10.68;59.93
49949;BME280;35840;45.982;8.890;2024-03-17T01:31:57;98865.19;;;10.30;60.76
49949;BME280;35840;45.982;8.890;2024-03-17T01:34:23;98871.34;;;10.45;60.73
49949;BME280;35840;45.982;8.890;2024-03-17T01:36:49;98866.56;;;10.37;60.92
49949;BME280;35840;45.982;8.890;2024-03-17T01:39:15;98867.16;;;10.25;60.64
49949;BME280;35840;45.982;8.890;2024-03-17T01:41:42;98871.88;;;10.34;61.10
49949;BME280;35840;45.982;8.890;2024-03-17T01:44:21;98876.53;;;10.26;61.06
49949;BME280;35840;45.982;8.890;2024-03-17T01:46:48;98866.91;;;9.96;62.55
49949;BME280;35840;45.982;8.890;2024-03-17T01:49:13;98859.97;;;9.98;62.08
49949;BME280;35840;45.982;8.890;2024-03-17T01:51:39;98854.50;;;10.04;60.65
49949;BME280;35840;45.982;8.890;2024-03-17T01:54:06;98857.38;;;9.80;61.50
49949;BME280;35840;45.982;8.890;2024-03-17T01:56:33;98851.69;;;10.09;61.00
49949;BME280;35840;45.982;8.890;2024-03-17T01:59:01;98855.84;;;10.11;60.47
49949;BME280;35840;45.982;8.890;2024-03-17T02:01:32;98849.53;;;10.01;60.91
49949;BME280;35840;45.982;8.890;2024-03-17T02:03:59;98847.53;;;10.06;60.10
49949;BME280;35840;45.982;8.890;2024-03-17T02:06:25;98849.56;;;10.17;60.34
49949;BME280;35840;45.982;8.890;2024-03-17T02:08:53;98853.03;;;10.16;59.87
49949;BME280;35840;45.982;8.890;2024-03-17T02:11:28;98850.19;;;10.05;59.94
49949;BME280;35840;45.982;8.890;2024-03-17T02:13:55;98852.00;;;10.03;60.53
49949;BME280;35840;45.982;8.890;2024-03-17T02:16:22;98860.25;;;9.92;60.62
49949;BME280;35840;45.982;8.890;2024-03-17T02:18:48;98848.63;;;9.67;60.93
49949;BME280;35840;45.982;8.890;2024-03-17T02:21:14;98844.69;;;9.77;60.78
49949;BME280;35840;45.982;8.890;2024-03-17T02:23:43;98859.25;;;9.94;60.77
49949;BME280;35840;45.982;8.890;2024-03-17T02:26:10;98857.44;;;9.96;60.34
49949;BME280;35840;45.982;8.890;2024-03-17T02:28:43;98853.53;;;10.07;60.20
49949;BME280;35840;45.982;8.890;2024-03-17T02:31:11;98845.13;;;10.03;60.16
49949;BME280;35840;45.982;8.890;2024-03-17T02:33:37;98851.03;;;10.05;60.53
49949;BME280;35840;45.982;8.890;2024-03-17T02:36:04;98849.44;;;10.03;60.03
49949;BME280;35840;45.982;8.890;2024-03-17T02:38:36;98850.66;;;9.95;60.39
49949;BME280;35840;45.982;8.890;2024-03-17T02:41:21;98852.31;;;9.96;60.26
49949;BME280;35840;45.982;8.890;2024-03-17T02:43:47;98850.81;;;9.92;60.50
49949;BME280;35840;45.982;8.890;2024-03-17T02:46:14;98851.19;;;9.85;60.78
49949;BME280;35840;45.982;8.890;2024-03-17T02:48:41;98851.78;;;9.55;61.55
49949;BME280;35840;45.982;8.890;2024-03-17T02:51:14;98862.50;;;9.63;61.81
49949;BME280;35840;45.982;8.890;2024-03-17T02:53:44;98868.13;;;9.71;61.91
49949;BME280;35840;45.982;8.890;2024-03-17T02:56:14;98867.72;;;9.79;61.74
49949;BME280;35840;45.982;8.890;2024-03-17T02:58:44;98859.19;;;9.78;61.71
49949;BME280;35840;45.982;8.890;2024-03-17T03:01:12;98859.72;;;9.85;61.61
49949;BME280;35840;45.982;8.890;2024-03-17T03:03:37;98855.03;;;9.58;61.60
49949;BME280;35840;45.982;8.890;2024-03-17T03:06:04;98856.69;;;9.59;61.98
49949;BME280;35840;45.982;8.890;2024-03-17T03:08:38;98854.81;;;9.63;62.01
49949;BME280;35840;45.982;8.890;2024-03-17T03:11:11;98853.75;;;9.67;61.90
49949;BME280;35840;45.982;8.890;2024-03-17T03:13:38;98846.13;;;9.65;61.73
49949;BME280;35840;45.982;8.890;2024-03-17T03:16:06;98853.31;;;9.59;61.45
49949;BME280;35840;45.982;8.890;2024-03-17T03:18:34;98835.03;;;9.47;61.60
49949;BME280;35840;45.982;8.890;2024-03-17T03:21:00;98847.47;;;9.55;61.68
49949;BME280;35840;45.982;8.890;2024-03-17T03:23:26;98854.56;;;9.50;62.16
49949;BME280;35840;45.982;8.890;2024-03-17T03:25:56;98850.97;;;9.54;62.43
49949;BME280;35840;45.982;8.890;2024-03-17T03:28:23;98847.38;;;9.57;61.94
49949;BME280;35840;45.982;8.890;2024-03-17T03:30:49;98853.13;;;9.62;61.96
49949;BME280;35840;45.982;8.890;2024-03-17T03:33:15;98857.66;;;9.57;61.49
49949;BME280;35840;45.982;8.890;2024-03-17T03:35:41;98855.09;;;9.57;61.84
49949;BME280;35840;45.982;8.890;2024-03-17T03:38:06;98848.28;;;9.38;62.59
49949;BME280;35840;45.982;8.890;2024-03-17T03:40:34;98853.09;;;9.27;63.28
49949;BME280;35840;45.982;8.890;2024-03-17T03:42:59;98858.13;;;9.28;63.25
49949;BME280;35840;45.982;8.890;2024-03-17T03:45:26;98858.53;;;9.38;63.36
49949;BME280;35840;45.982;8.890;2024-03-17T03:47:51;98854.44;;;9.53;63.25
49949;BME280;35840;45.982;8.890;2024-03-17T03:50:19;98860.09;;;9.60;63.28
49949;BME280;35840;45.982;8.890;2024-03-17T03:52:46;98851.69;;;9.56;62.56
49949;BME280;35840;45.982;8.890;2024-03-17T03:55:12;98864.59;;;9.37;62.74
49949;BME280;35840;45.982;8.890;2024-03-17T03:57:41;98852.34;;;9.25;63.56
49949;BME280;35840;45.982;8.890;2024-03-17T04:00:08;98856.56;;;9.26;63.88
49949;BME280;35840;45.982;8.890;2024-03-17T04:02:51;98863.22;;;9.30;63.76
49949;BME280;35840;45.982;8.890;2024-03-17T04:05:18;98866.38;;;9.35;64.15
49949;BME280;35840;45.982;8.890;2024-03-17T04:07:45;98872.16;;;9.40;64.06
49949;BME280;35840;45.982;8.890;2024-03-17T04:10:13;98882.34;;;9.42;63.87
49949;BME280;35840;45.982;8.890;2024-03-17T04:12:39;98876.94;;;9.29;63.88
49949;BME280;35840;45.982;8.890;2024-03-17T04:15:05;98879.75;;;9.24;63.52
49949;BME280;35840;45.982;8.890;2024-03-17T04:17:36;98884.09;;;9.22;63.03
49949;BME280;35840;45.982;8.890;2024-03-17T04:20:04;98884.88;;;9.24;62.95
49949;BME280;35840;45.982;8.890;2024-03-17T04:22:30;98884.88;;;9.05;63.87
49949;BME280;35840;45.982;8.890;2024-03-17T04:24:56;98887.38;;;9.07;63.54
49949;BME280;35840;45.982;8.890;2024-03-17T04:27:23;98890.16;;;8.83;63.95
49949;BME280;35840;45.982;8.890;2024-03-17T04:29:50;98894.84;;;8.92;63.92
49949;BME280;35840;45.982;8.890;2024-03-17T04:32:16;98891.13;;;9.00;63.94
49949;BME280;35840;45.982;8.890;2024-03-17T04:34:41;98890.16;;;9.02;63.34
49949;BME280;35840;45.982;8.890;2024-03-17T04:37:09;98881.34;;;9.08;63.18
49949;BME280;35840;45.982;8.890;2024-03-17T04:39:39;98879.19;;;8.99;63.17
49949;BME280;35840;45.982;8.890;2024-03-17T04:42:11;98875.13;;;8.94;63.30
49949;BME280;35840;45.982;8.890;2024-03-17T04:44:37;98891.13;;;8.81;63.42
49949;BME280;35840;45.982;8.890;2024-03-17T04:47:04;98889.16;;;8.86;64.09
49949;BME280;35840;45.982;8.890;2024-03-17T04:49:36;98888.28;;;8.87;63.60
49949;BME280;35840;45.982;8.890;2024-03-17T04:52:02;98892.97;;;8.77;63.68
49949;BME280;35840;45.982;8.890;2024-03-17T04:54:28;98898.59;;;8.85;63.64
49949;BME280;35840;45.982;8.890;2024-03-17T04:56:54;98894.75;;;8.35;64.98
49949;BME280;35840;45.982;8.890;2024-03-17T04:59:20;98898.84;;;8.60;64.73
49949;BME280;35840;45.982;8.890;2024-03-17T05:01:46;98889.09;;;8.68;64.24
49949;BME280;35840;45.982;8.890;2024-03-17T05:04:12;98895.91;;;8.69;64.03
49949;BME280;35840;45.982;8.890;2024-03-17T05:06:38;98889.81;;;8.72;64.17
49949;BME280;35840;45.982;8.890;2024-03-17T05:09:04;98893.47;;;8.66;64.77
49949;BME280;35840;45.982;8.890;2024-03-17T05:11:32;98888.63;;;8.79;64.26
49949;BME280;35840;45.982;8.890;2024-03-17T05:13:58;98893.72;;;8.60;63.95
49949;BME280;35840;45.982;8.890;2024-03-17T05:16:24;98899.41;;;8.67;64.61
49949;BME280;35840;45.982;8.890;2024-03-17T05:18:50;98904.84;;;8.59;64.06
49949;BME280;35840;45.982;8.890;2024-03-17T05:21:16;98899.72;;;8.59;64.40
49949;BME280;35840;45.982;8.890;2024-03-17T05:23:42;98902.88;;;8.66;64.99
49949;BME280;35840;45.982;8.890;2024-03-17T05:26:08;98903.59;;;8.69;63.83
49949;BME280;35840;45.982;8.890;2024-03-17T05:28:34;98905.84;;;8.56;65.29
49949;BME280;35840;45.982;8.890;2024-03-17T05:31:00;98905.63;;;8.61;64.57
49949;BME280;35840;45.982;8.890;2024-03-17T05:33:26;98900.56;;;8.39;65.32
49949;BME280;35840;45.982;8.890;2024-03-17T05:35:57;98917.38;;;8.46;65.69
49949;BME280;35840;45.982;8.890;2024-03-17T05:38:25;98905.75;;;8.37;65.26
49949;BME280;35840;45.982;8.890;2024-03-17T05:41:03;98913.16;;;8.45;65.26
49949;BME280;35840;45.982;8.890;2024-03-17T05:43:31;98910.59;;;8.45;64.97
49949;BME280;35840;45.982;8.890;2024-03-17T05:46:05;98924.81;;;8.52;65.27
49949;BME280;35840;45.982;8.890;2024-03-17T05:48:37;98930.50;;;8.38;65.44
49949;BME280;35840;45.982;8.890;2024-03-17T05:51:07;98924.41;;;8.41;66.03
49949;BME280;35840;45.982;8.890;2024-03-17T05:53:34;98926.41;;;8.55;65.40
49949;BME280;35840;45.982;8.890;2024-03-17T05:56:01;98933.84;;;8.61;65.41
49949;BME280;35840;45.982;8.890;2024-03-17T05:58:27;98928.50;;;8.66;65.65
49949;BME280;35840;45.982;8.890;2024-03-17T06:00:53;98930.31;;;8.64;65.62
49949;BME280;35840;45.982;8.890;2024-03-17T06:03:19;98931.00;;;8.67;65.81
49949;BME280;35840;45.982;8.890;2024-03-17T06:05:45;98923.22;;;8.69;65.67
49949;BME280;35840;45.982;8.890;2024-03-17T06:08:12;98924.84;;;8.71;65.44
49949;BME280;35840;45.982;8.890;2024-03-17T06:10:46;98915.63;;;8.67;65.75
49949;BME280;35840;45.982;8.890;2024-03-17T06:13:13;98923.81;;;8.75;65.71
49949;BME280;35840;45.982;8.890;2024-03-17T06:15:41;98931.34;;;8.78;66.30
49949;BME280;35840;45.982;8.890;2024-03-17T06:18:08;98937.50;;;8.74;66.12
49949;BME280;35840;45.982;8.890;2024-03-17T06:20:43;98932.97;;;8.81;65.92
49949;BME280;35840;45.982;8.890;2024-03-17T06:23:10;98943.22;;;8.81;66.33
49949;BME280;35840;45.982;8.890;2024-03-17T06:25:46;98936.34;;;8.63;66.82
49949;BME280;35840;45.982;8.890;2024-03-17T06:28:16;98950.34;;;8.74;66.90
49949;BME280;35840;45.982;8.890;2024-03-17T06:30:54;98955.47;;;8.74;66.68
49949;BME280;35840;45.982;8.890;2024-03-17T06:33:20;98956.03;;;8.81;67.05
49949;BME280;35840;45.982;8.890;2024-03-17T06:35:46;98941.81;;;8.74;67.74
49949;BME280;35840;45.982;8.890;2024-03-17T06:38:13;98955.81;;;8.86;67.34
49949;BME280;35840;45.982;8.890;2024-03-17T06:40:41;98954.56;;;8.75;68.69
49949;BME280;35840;45.982;8.890;2024-03-17T06:43:07;98967.63;;;8.90;69.24
49949;BME280;35840;45.982;8.890;2024-03-17T06:45:33;98964.91;;;8.93;69.08
49949;BME280;35840;45.982;8.890;2024-03-17T06:47:59;98958.50;;;9.03;69.18
49949;BME280;35840;45.982;8.890;2024-03-17T06:50:26;98968.53;;;9.08;69.68
49949;BME280;35840;45.982;8.890;2024-03-17T06:52:52;98964.94;;;9.12;70.92
49949;BME280;35840;45.982;8.890;2024-03-17T06:55:18;98973.75;;;9.25;70.57
49949;BME280;35840;45.982;8.890;2024-03-17T06:57:47;98965.88;;;9.30;71.07
49949;BME280;35840;45.982;8.890;2024-03-17T07:00:13;98967.25;;;9.37;70.47
49949;BME280;35840;45.982;8.890;2024-03-17T07:02:40;98957.50;;;9.44;70.04
49949;BME280;35840;45.982;8.890;2024-03-17T07:05:15;98948.09;;;9.44;69.51
49949;BME280;35840;45.982;8.890;2024-03-17T07:07:42;98963.53;;;9.62;68.60
49949;BME280;35840;45.982;8.890;2024-03-17T07:10:09;98968.09;;;9.74;67.95
49949;BME280;35840;45.982;8.890;2024-03-17T07:12:40;98963.50;;;9.81;67.92
49949;BME280;35840;45.982;8.890;2024-03-17T07:15:08;98962.44;;;9.85;67.51
49949;BME280;35840;45.982;8.890;2024-03-17T07:17:34;98971.66;;;9.89;66.87
49949;BME280;35840;45.982;8.890;2024-03-17T07:20:00;98968.72;;;9.97;66.74
49949;BME280;35840;45.982;8.890;2024-03-17T07:22:26;98965.94;;;10.02;66.88
49949;BME280;35840;45.982;8.890;2024-03-17T07:24:53;98957.09;;;10.07;66.62
49949;BME280;35840;45.982;8.890;2024-03-17T07:27:26;98949.47;;;10.06;66.85
49949;BME280;35840;45.982;8.890;2024-03-17T07:29:52;98957.63;;;10.14;66.24
49949;BME280;35840;45.982;8.890;2024-03-17T07:32:18;98953.94;;;10.20;66.21
49949;BME280;35840;45.982;8.890;2024-03-17T07:34:44;98952.03;;;10.23;65.75
49949;BME280;35840;45.982;8.890;2024-03-17T07:37:10;98956.28;;;10.24;65.53
49949;BME280;35840;45.982;8.890;2024-03-17T07:39:35;98960.66;;;10.22;64.91
49949;BME280;35840;45.982;8.890;2024-03-17T07:42:02;98953.63;;;10.26;64.48
49949;BME280;35840;45.982;8.890;2024-03-17T07:44:31;98943.59;;;10.21;64.19
49949;BME280;35840;45.982;8.890;2024-03-17T07:47:00;98952.13;;;10.22;64.35
49949;BME280;35840;45.982;8.890;2024-03-17T07:49:26;98956.34;;;10.23;63.77
49949;BME280;35840;45.982;8.890;2024-03-17T07:51:52;98954.47;;;10.26;63.77
49949;BME280;35840;45.982;8.890;2024-03-17T07:54:18;98956.88;;;10.29;63.92
49949;BME280;35840;45.982;8.890;2024-03-17T07:56:45;98957.56;;;10.33;64.10
49949;BME280;35840;45.982;8.890;2024-03-17T07:59:12;98955.78;;;10.35;63.67
49949;BME280;35840;45.982;8.890;2024-03-17T08:01:41;98955.91;;;10.32;62.75
49949;BME280;35840;45.982;8.890;2024-03-17T08:04:07;98955.72;;;10.37;61.65
49949;BME280;35840;45.982;8.890;2024-03-17T08:06:32;98956.75;;;10.50;62.56
49949;BME280;35840;45.982;8.890;2024-03-17T08:08:58;98952.13;;;10.57;62.54
49949;BME280;35840;45.982;8.890;2024-03-17T08:11:24;98959.59;;;10.61;62.12
49949;BME280;35840;45.982;8.890;2024-03-17T08:13:50;98948.94;;;10.69;61.74
49949;BME280;35840;45.982;8.890;2024-03-17T08:16:16;98957.13;;;10.76;61.58
49949;BME280;35840;45.982;8.890;2024-03-17T08:18:42;98955.00;;;10.84;61.24
49949;BME280;35840;45.982;8.890;2024-03-17T08:21:09;98951.69;;;10.82;61.03
49949;BME280;35840;45.982;8.890;2024-03-17T08:23:35;98951.53;;;10.85;60.74
49949;BME280;35840;45.982;8.890;2024-03-17T08:26:07;98949.22;;;10.80;60.35
49949;BME280;35840;45.982;8.890;2024-03-17T08:28:32;98946.22;;;10.88;60.05
49949;BME280;35840;45.982;8.890;2024-03-17T08:31:00;98946.66;;;10.96;59.12
49949;BME280;35840;45.982;8.890;2024-03-17T08:33:27;98944.09;;;10.96;58.74
49949;BME280;35840;45.982;8.890;2024-03-17T08:36:07;98942.59;;;11.08;57.89
49949;BME280;35840;45.982;8.890;2024-03-17T08:38:33;98943.03;;;11.16;57.51
49949;BME280;35840;45.982;8.890;2024-03-17T08:41:07;98940.97;;;11.23;58.30
49949;BME280;35840;45.982;8.890;2024-03-17T08:43:35;98940.72;;;11.28;58.50
49949;BME280;35840;45.982;8.890;2024-03-17T08:46:02;98938.03;;;11.29;57.93
49949;BME280;35840;45.982;8.890;2024-03-17T08:48:30;98939.13;;;11.25;57.58
49949;BME280;35840;45.982;8.890;2024-03-17T08:50:57;98945.22;;;11.24;57.71
49949;BME280;35840;45.982;8.890;2024-03-17T08:53:24;98939.38;;;11.20;59.61
49949;BME280;35840;45.982;8.890;2024-03-17T08:55:50;98947.28;;;11.33;61.24
49949;BME280;35840;45.982;8.890;2024-03-17T08:58:16;98940.38;;;11.34;60.57
49949;BME280;35840;45.982;8.890;2024-03-17T09:00:42;98937.47;;;11.40;59.31
49949;BME280;35840;45.982;8.890;2024-03-17T09:03:09;98941.72;;;11.41;59.77
49949;BME280;35840;45.982;8.890;2024-03-17T09:05:36;98943.34;;;11.42;59.52
49949;BME280;35840;45.982;8.890;2024-03-17T09:08:03;98934.41;;;11.33;59.18
49949;BME280;35840;45.982;8.890;2024-03-17T09:10:29;98938.56;;;11.36;59.21
49949;BME280;35840;45.982;8.890;2024-03-17T09:12:55;98945.53;;;11.50;60.21
49949;BME280;35840;45.982;8.890;2024-03-17T09:15:20;98939.78;;;11.45;60.19
49949;BME280;35840;45.982;8.890;2024-03-17T09:17:46;98939.38;;;11.52;61.57
49949;BME280;35840;45.982;8.890;2024-03-17T09:20:13;98939.63;;;11.48;59.86
49949;BME280;35840;45.982;8.890;2024-03-17T09:22:41;98931.06;;;11.47;59.61
49949;BME280;35840;45.982;8.890;2024-03-17T09:25:10;98937.53;;;11.54;59.07
49949;BME280;35840;45.982;8.890;2024-03-17T09:27:37;98932.72;;;11.64;59.69
49949;BME280;35840;45.982;8.890;2024-03-17T09:30:04;98933.13;;;11.73;58.65
49949;BME280;35840;45.982;8.890;2024-03-17T09:32:38;98936.03;;;11.82;57.73
49949;BME280;35840;45.982;8.890;2024-03-17T09:35:04;98938.75;;;11.79;57.38
49949;BME280;35840;45.982;8.890;2024-03-17T09:37:31;98940.84;;;11.73;57.10
49949;BME280;35840;45.982;8.890;2024-03-17T09:39:57;98924.72;;;11.69;57.42
49949;BME280;35840;45.982;8.890;2024-03-17T09:42:26;98925.88;;;11.79;59.42
49949;BME280;35840;45.982;8.890;2024-03-17T09:44:55;98935.09;;;11.83;58.71
49949;BME280;35840;45.982;8.890;2024-03-17T09:47:24;98939.72;;;11.93;59.07
49949;BME280;35840;45.982;8.890;2024-03-17T09:49:52;98927.50;;;11.96;56.60
49949;BME280;35840;45.982;8.890;2024-03-17T09:52:23;98931.94;;;11.94;55.35
49949;BME280;35840;45.982;8.890;2024-03-17T09:55:17;98923.22;;;11.97;54.78
49949;BME280;35840;45.982;8.890;2024-03-17T09:57:43;98928.53;;;11.78;53.97
49949;BME280;35840;45.982;8.890;2024-03-17T10:00:11;98921.97;;;11.72;54.74
49949;BME280;35840;45.982;8.890;2024-03-17T10:02:46;98917.22;;;11.80;55.28
49949;BME280;35840;45.982;8.890;2024-03-17T10:05:24;98906.19;;;11.78;55.52
49949;BME280;35840;45.982;8.890;2024-03-17T10:07:51;98928.03;;;11.87;57.07
49949;BME280;35840;45.982;8.890;2024-03-17T10:10:18;98923.41;;;11.94;57.50
49949;BME280;35840;45.982;8.890;2024-03-17T10:12:49;98913.19;;;11.91;56.27
49949;BME280;35840;45.982;8.890;2024-03-17T10:15:17;98921.88;;;11.89;54.19
49949;BME280;35840;45.982;8.890;2024-03-17T10:17:43;98916.53;;;11.93;54.30
49949;BME280;35840;45.982;8.890;2024-03-17T10:20:15;98905.19;;;11.97;54.97
49949;BME280;35840;45.982;8.890;2024-03-17T10:25:32;98910.63;;;12.07;51.86
49949;BME280;35840;45.982;8.890;2024-03-17T10:27:59;98909.59;;;12.09;52.35
49949;BME280;35840;45.982;8.890;2024-03-17T10:30:27;98910.00;;;12.17;51.02
49949;BME280;35840;45.982;8.890;2024-03-17T10:32:59;98906.03;;;12.12;50.88
49949;BME280;35840;45.982;8.890;2024-03-17T10:38:02;98907.97;;;12.22;49.61
49949;BME280;35840;45.982;8.890;2024-03-17T10:40:30;98907.53;;;12.30;50.12
49949;BME280;35840;45.982;8.890;2024-03-17T10:42:57;98910.19;;;12.43;49.54
49949;BME280;35840;45.982;8.890;2024-03-17T10:45:25;98908.66;;;12.55;50.87
49949;BME280;35840;45.982;8.890;2024-03-17T10:47:51;98892.63;;;12.50;48.74
49949;BME280;35840;45.982;8.890;2024-03-17T10:50:22;98909.22;;;12.74;48.47
49949;BME280;35840;45.982;8.890;2024-03-17T10:52:54;98906.91;;;12.84;49.60
49949;BME280;35840;45.982;8.890;2024-03-17T10:55:25;98906.25;;;12.95;48.77
49949;BME280;35840;45.982;8.890;2024-03-17T10:57:55;98908.34;;;13.17;48.05
49949;BME280;35840;45.982;8.890;2024-03-17T11:00:24;98906.38;;;13.21;47.36
49949;BME280;35840;45.982;8.890;2024-03-17T11:02:54;98900.19;;;13.23;48.97
49949;BME280;35840;45.982;8.890;2024-03-17T11:05:28;98906.91;;;13.40;48.40
49949;BME280;35840;45.982;8.890;2024-03-17T11:08:00;98902.81;;;13.51;49.32
49949;BME280;35840;45.982;8.890;2024-03-17T11:10:28;98891.38;;;13.68;48.40
49949;BME280;35840;45.982;8.890;2024-03-17T11:12:55;98896.22;;;13.87;49.41
49949;BME280;35840;45.982;8.890;2024-03-17T11:17:54;98887.03;;;14.08;47.50
49949;BME280;35840;45.982;8.890;2024-03-17T11:20:27;98886.22;;;14.21;45.87
49949;BME280;35840;45.982;8.890;2024-03-17T11:23:00;98866.25;;;14.23;46.30
49949;BME280;35840;45.982;8.890;2024-03-17T11:27:58;98875.34;;;14.28;43.93
49949;BME280;35840;45.982;8.890;2024-03-17T11:38:55;98865.81;;;14.80;43.38
49949;BME280;35840;45.982;8.890;2024-03-17T11:49:41;98845.69;;;14.97;39.87
49949;BME280;35840;45.982;8.890;2024-03-17T11:52:13;98836.38;;;14.94;42.32
49949;BME280;35840;45.982;8.890;2024-03-17T11:54:46;98835.28;;;15.10;41.55
49949;BME280;35840;45.982;8.890;2024-03-17T11:57:24;98826.94;;;15.18;41.52
49949;BME280;35840;45.982;8.890;2024-03-17T11:59:52;98830.31;;;15.31;44.98
49949;BME280;35840;45.982;8.890;2024-03-17T12:02:26;98821.16;;;15.38;40.01
49949;BME280;35840;45.982;8.890;2024-03-17T12:05:00;98809.72;;;15.41;40.06
49949;BME280;35840;45.982;8.890;2024-03-17T12:07:27;98808.34;;;15.48;40.43
49949;BME280;35840;45.982;8.890;2024-03-17T12:09:55;98801.91;;;15.54;37.45
49949;BME280;35840;45.982;8.890;2024-03-17T12:12:25;98789.03;;;15.52;39.48
49949;BME280;35840;45.982;8.890;2024-03-17T12:14:56;98789.06;;;15.63;42.21
49949;BME280;35840;45.982;8.890;2024-03-17T12:17:24;98787.34;;;15.75;39.84
49949;BME280;35840;45.982;8.890;2024-03-17T12:19:50;98784.25;;;15.70;38.70
49949;BME280;35840;45.982;8.890;2024-03-17T12:22:19;98776.97;;;15.75;40.36
49949;BME280;35840;45.982;8.890;2024-03-17T12:24:51;98779.78;;;15.72;39.88
49949;BME280;35840;45.982;8.890;2024-03-17T12:27:19;98772.59;;;15.76;39.01
49949;BME280;35840;45.982;8.890;2024-03-17T12:29:47;98775.06;;;15.77;39.09
49949;BME280;35840;45.982;8.890;2024-03-17T12:32:15;98770.84;;;15.76;38.98
49949;BME280;35840;45.982;8.890;2024-03-17T12:34:45;98761.41;;;15.75;40.53
49949;BME280;35840;45.982;8.890;2024-03-17T12:37:25;98761.84;;;15.69;39.43
49949;BME280;35840;45.982;8.890;2024-03-17T12:39:59;98762.78;;;15.57;37.47
49949;BME280;35840;45.982;8.890;2024-03-17T12:42:27;98748.16;;;15.44;38.63
49949;BME280;35840;45.982;8.890;2024-03-17T12:44:55;98746.75;;;15.52;41.32
49949;BME280;35840;45.982;8.890;2024-03-17T12:47:23;98756.41;;;15.49;42.41
49949;BME280;35840;45.982;8.890;2024-03-17T12:49:50;98749.19;;;15.42;43.57
49949;BME280;35840;45.982;8.890;2024-03-17T12:52:22;98751.53;;;15.33;43.36
49949;BME280;35840;45.982;8.890;2024-03-17T12:55:01;98750.22;;;15.28;42.20
49949;BME280;35840;45.982;8.890;2024-03-17T12:57:47;98752.44;;;15.21;42.00
49949;BME280;35840;45.982;8.890;2024-03-17T13:00:32;98748.53;;;15.15;41.20
49949;BME280;35840;45.982;8.890;2024-03-17T13:03:00;98749.81;;;15.10;42.13
49949;BME280;35840;45.982;8.890;2024-03-17T13:05:27;98749.19;;;15.06;44.04
49949;BME280;35840;45.982;8.890;2024-03-17T13:07:53;98750.25;;;15.04;42.54
49949;BME280;35840;45.982;8.890;2024-03-17T13:10:23;98746.50;;;15.08;44.30
49949;BME280;35840;45.982;8.890;2024-03-17T13:13:01;98739.19;;;15.02;43.57
49949;BME280;35840;45.982;8.890;2024-03-17T13:15:28;98740.13;;;15.01;43.78
49949;BME280;35840;45.982;8.890;2024-03-17T13:17:57;98738.69;;;14.96;43.49
49949;BME280;35840;45.982;8.890;2024-03-17T13:20:24;98734.13;;;15.00;43.62
49949;BME280;35840;45.982;8.890;2024-03-17T13:22:50;98731.66;;;14.98;44.97
49949;BME280;35840;45.982;8.890;2024-03-17T13:25:24;98720.44;;;14.98;45.04
49949;BME280;35840;45.982;8.890;2024-03-17T13:27:51;98712.22;;;14.93;45.46
49949;BME280;35840;45.982;8.890;2024-03-17T13:30:19;98711.13;;;14.95;46.31
49949;BME280;35840;45.982;8.890;2024-03-17T13:32:48;98708.34;;;14.98;44.56
49949;BME280;35840;45.982;8.890;2024-03-17T13:35:20;98703.16;;;14.98;43.25
49949;BME280;35840;45.982;8.890;2024-03-17T13:37:48;98708.59;;;15.07;42.83